createdAt,value
2022-12-17T00:00:14.048Z,1021.62
2022-12-17T00:01:13.424Z,1021.62
2022-12-17T00:02:13.366Z,1021.62
2022-12-17T00:03:13.492Z,1021.58
2022-12-17T00:04:13.678Z,1021.60
2022-12-17T00:05:17.712Z,1021.58
2022-12-17T00:06:13.943Z,1021.62
2022-12-17T00:07:13.187Z,1021.60
2022-12-17T00:08:13.650Z,1021.59
2022-12-17T00:09:15.068Z,1021.63
2022-12-17T00:10:13.373Z,1021.70
2022-12-17T00:11:13.347Z,1021.71
2022-12-17T00:12:13.631Z,1021.77
2022-12-17T00:13:13.603Z,1021.74
2022-12-17T00:14:13.501Z,1021.78
2022-12-17T00:15:13.556Z,1021.76
2022-12-17T00:16:13.919Z,1021.78
2022-12-17T00:17:13.029Z,1021.79
2022-12-17T00:18:13.327Z,1021.74
2022-12-17T00:19:13.280Z,1021.80
2022-12-17T00:20:13.436Z,1021.82
2022-12-17T00:21:13.997Z,1021.84
2022-12-17T00:22:13.293Z,1021.83
2022-12-17T00:23:13.233Z,1021.85
2022-12-17T00:24:13.176Z,1021.89
2022-12-17T00:25:13.182Z,1021.89
2022-12-17T00:26:13.408Z,1021.91
2022-12-17T00:27:13.550Z,1021.91
2022-12-17T00:28:13.494Z,1021.93
2022-12-17T00:29:13.442Z,1021.95
2022-12-17T00:30:13.436Z,1021.96
2022-12-17T00:31:13.582Z,1021.99
2022-12-17T00:32:13.598Z,1021.98
2022-12-17T00:33:14.012Z,1022.03
2022-12-17T00:34:13.402Z,1022.03
2022-12-17T00:35:13.295Z,1022.07
2022-12-17T00:36:13.396Z,1022.02
2022-12-17T00:37:13.544Z,1022.04
2022-12-17T00:38:13.671Z,1022.05
2022-12-17T00:39:13.579Z,1022.06
2022-12-17T00:40:13.515Z,1022.08
2022-12-17T00:41:13.767Z,1022.12
2022-12-17T00:42:13.792Z,1022.10
2022-12-17T00:43:14.107Z,1022.11
2022-12-17T00:44:13.466Z,1022.14
2022-12-17T00:45:13.713Z,1022.12
2022-12-17T00:46:13.725Z,1022.17
2022-12-17T00:47:14.023Z,1022.15
2022-12-17T00:48:13.041Z,1022.13
2022-12-17T00:49:13.239Z,1022.13
2022-12-17T00:50:13.293Z,1022.15
2022-12-17T00:51:13.558Z,1022.15
2022-12-17T00:52:13.396Z,1022.17
2022-12-17T00:53:13.431Z,1022.16
2022-12-17T00:54:13.586Z,1022.18
2022-12-17T00:55:13.553Z,1022.16
2022-12-17T00:56:13.486Z,1022.19
2022-12-17T00:57:13.435Z,1022.18
2022-12-17T00:58:13.298Z,1022.21
2022-12-17T00:59:13.249Z,1022.18
2022-12-17T01:00:13.223Z,1022.22
2022-12-17T01:01:13.468Z,1022.24
2022-12-17T01:02:13.620Z,1022.22
2022-12-17T01:03:13.971Z,1022.20
2022-12-17T01:04:12.933Z,1022.19
2022-12-17T01:05:12.846Z,1022.22
2022-12-17T01:06:14.155Z,1022.19
2022-12-17T01:07:13.451Z,1022.18
2022-12-17T01:08:13.871Z,1022.19
2022-12-17T01:09:15.131Z,1022.16
2022-12-17T01:10:13.087Z,1022.23
2022-12-17T01:11:13.304Z,1022.25
2022-12-17T01:12:13.259Z,1022.20
2022-12-17T01:13:13.221Z,1022.24
2022-12-17T01:14:13.286Z,1022.30
2022-12-17T01:15:13.555Z,1022.29
2022-12-17T01:16:13.858Z,1022.29
2022-12-17T01:17:13.021Z,1022.28
2022-12-17T01:18:12.912Z,1022.31
2022-12-17T01:19:13.156Z,1022.29
2022-12-17T01:20:13.548Z,1022.28
2022-12-17T01:21:13.595Z,1022.29
2022-12-17T01:22:13.462Z,1022.26
2022-12-17T01:23:13.393Z,1022.29
2022-12-17T01:24:13.831Z,1022.29
2022-12-17T01:25:18.896Z,1022.26
2022-12-17T01:26:12.824Z,1022.31
2022-12-17T01:27:14.015Z,1022.32
2022-12-17T01:28:13.394Z,1022.32
2022-12-17T01:29:13.577Z,1022.34
2022-12-17T01:30:14.218Z,1022.38
2022-12-17T01:31:13.319Z,1022.39
2022-12-17T01:32:13.750Z,1022.42
2022-12-17T01:33:14.032Z,1022.42
2022-12-17T01:34:13.345Z,1022.42
2022-12-17T01:35:13.379Z,1022.41
2022-12-17T01:36:13.680Z,1022.44
2022-12-17T01:37:13.738Z,1022.43
2022-12-17T01:38:13.648Z,1022.46
2022-12-17T01:39:13.804Z,1022.45
2022-12-17T01:40:18.782Z,1022.43
2022-12-17T01:41:13.884Z,1022.45
2022-12-17T01:42:13.786Z,1022.46
2022-12-17T01:43:13.655Z,1022.45
2022-12-17T01:44:13.574Z,1022.41
2022-12-17T01:45:13.798Z,1022.48
2022-12-17T01:46:13.723Z,1022.50
2022-12-17T01:47:13.869Z,1022.53
2022-12-17T01:48:14.080Z,1022.51
2022-12-17T01:49:13.038Z,1022.56
2022-12-17T01:50:13.168Z,1022.59
2022-12-17T01:51:14.337Z,1022.60
2022-12-17T01:52:13.161Z,1022.61
2022-12-17T01:53:13.020Z,1022.64
2022-12-17T01:54:12.817Z,1022.66
2022-12-17T01:55:16.091Z,1022.63
2022-12-17T01:56:12.990Z,1022.65
2022-12-17T01:57:12.983Z,1022.65
2022-12-17T01:58:13.051Z,1022.63
2022-12-17T01:59:13.055Z,1022.62
2022-12-17T02:00:13.562Z,1022.64
2022-12-17T02:01:14.154Z,1022.61
2022-12-17T02:02:13.273Z,1022.61
2022-12-17T02:03:16.661Z,1022.66
2022-12-17T02:04:13.968Z,1022.63
2022-12-17T02:05:14.271Z,1022.65
2022-12-17T02:06:13.513Z,1022.62
2022-12-17T02:07:13.596Z,1022.62
2022-12-17T02:08:14.897Z,1022.60
2022-12-17T02:09:13.010Z,1022.60
2022-12-17T02:10:13.058Z,1022.61
2022-12-17T02:11:13.422Z,1022.60
2022-12-17T02:12:13.551Z,1022.61
2022-12-17T02:13:13.665Z,1022.60
2022-12-17T02:14:14.167Z,1022.60
2022-12-17T02:15:13.358Z,1022.54
2022-12-17T02:16:13.556Z,1022.56
2022-12-17T02:17:13.887Z,1022.57
2022-12-17T02:18:13.995Z,1022.53
2022-12-17T02:19:13.272Z,1022.57
2022-12-17T02:20:13.406Z,1022.55
2022-12-17T02:21:13.651Z,1022.57
2022-12-17T02:22:13.945Z,1022.60
2022-12-17T02:23:12.881Z,1022.66
2022-12-17T02:24:13.856Z,1022.68
2022-12-17T02:25:13.822Z,1022.67
2022-12-17T02:26:14.066Z,1022.70
2022-12-17T02:27:13.173Z,1022.67
2022-12-17T02:28:13.127Z,1022.69
2022-12-17T02:29:13.164Z,1022.64
2022-12-17T02:30:13.188Z,1022.68
2022-12-17T02:31:13.158Z,1022.63
2022-12-17T02:32:13.268Z,1022.66
2022-12-17T02:33:13.532Z,1022.63
2022-12-17T02:34:13.586Z,1022.68
2022-12-17T02:35:13.659Z,1022.65
2022-12-17T02:36:14.003Z,1022.67
2022-12-17T02:37:13.188Z,1022.68
2022-12-17T02:38:13.191Z,1022.69
2022-12-17T02:39:13.173Z,1022.70
2022-12-17T02:40:13.180Z,1022.72
2022-12-17T02:41:13.488Z,1022.72
2022-12-17T02:42:13.498Z,1022.68
2022-12-17T02:43:13.570Z,1022.67
2022-12-17T02:44:13.866Z,1022.68
2022-12-17T02:45:13.795Z,1022.70
2022-12-17T02:46:14.184Z,1022.67
2022-12-17T02:47:13.184Z,1022.69
2022-12-17T02:48:13.195Z,1022.69
2022-12-17T02:49:13.427Z,1022.69
2022-12-17T02:50:13.668Z,1022.68
2022-12-17T02:51:13.865Z,1022.72
2022-12-17T02:52:14.050Z,1022.73
2022-12-17T02:53:13.169Z,1022.72
2022-12-17T02:54:13.060Z,1022.76
2022-12-17T02:55:13.224Z,1022.79
2022-12-17T02:56:13.406Z,1022.79
2022-12-17T02:57:13.402Z,1022.79
2022-12-17T02:58:13.411Z,1022.81
2022-12-17T02:59:13.288Z,1022.82
2022-12-17T03:00:14.183Z,1022.83
2022-12-17T03:01:13.305Z,1022.81
2022-12-17T03:02:13.608Z,1022.85
2022-12-17T03:03:14.107Z,1022.83
2022-12-17T03:04:13.153Z,1022.83
2022-12-17T03:05:42.665Z,1022.82
2022-12-17T03:06:13.633Z,1022.83
2022-12-17T03:07:14.015Z,1022.83
2022-12-17T03:08:12.898Z,1022.82
2022-12-17T03:09:12.880Z,1022.80
2022-12-17T03:10:13.927Z,1022.84
2022-12-17T03:11:12.908Z,1022.85
2022-12-17T03:12:12.835Z,1022.86
2022-12-17T03:13:13.962Z,1022.88
2022-12-17T03:14:13.437Z,1022.89
2022-12-17T03:15:13.445Z,1022.92
2022-12-17T03:16:13.352Z,1022.95
2022-12-17T03:17:13.332Z,1022.93
2022-12-17T03:18:13.364Z,1022.99
2022-12-17T03:19:13.660Z,1022.97
2022-12-17T03:20:14.032Z,1022.96
2022-12-17T03:21:13.387Z,1022.95
2022-12-17T03:22:13.443Z,1022.94
2022-12-17T03:23:13.320Z,1022.94
2022-12-17T03:24:13.305Z,1022.92
2022-12-17T03:25:13.260Z,1022.86
2022-12-17T03:26:13.137Z,1022.86
2022-12-17T03:27:13.127Z,1022.86
2022-12-17T03:28:13.484Z,1022.86
2022-12-17T03:29:13.318Z,1022.84
2022-12-17T03:30:13.139Z,1022.86
2022-12-17T03:31:13.805Z,1022.89
2022-12-17T03:32:13.706Z,1022.91
2022-12-17T03:33:13.608Z,1022.93
2022-12-17T03:34:13.438Z,1022.92
2022-12-17T03:35:13.524Z,1022.93
2022-12-17T03:36:13.380Z,1022.96
2022-12-17T03:37:13.643Z,1022.92
2022-12-17T03:38:13.765Z,1022.93
2022-12-17T03:39:13.587Z,1022.94
2022-12-17T03:40:13.592Z,1022.98
2022-12-17T03:41:13.800Z,1022.99
2022-12-17T03:42:13.789Z,1023.03
2022-12-17T03:43:14.963Z,1023.01
2022-12-17T03:44:13.216Z,1023.06
2022-12-17T03:45:13.239Z,1023.08
2022-12-17T03:46:13.200Z,1023.05
2022-12-17T03:47:13.525Z,1023.09
2022-12-17T03:48:13.431Z,1023.04
2022-12-17T03:49:13.334Z,1023.05
2022-12-17T03:50:13.270Z,1023.04
2022-12-17T03:51:13.217Z,1023.02
2022-12-17T03:52:13.063Z,1023.05
2022-12-17T03:53:13.578Z,1023.05
2022-12-17T03:54:13.795Z,1023.09
2022-12-17T03:55:13.716Z,1023.08
2022-12-17T03:56:14.055Z,1023.07
2022-12-17T03:57:16.090Z,1023.05
2022-12-17T03:58:13.483Z,1023.09
2022-12-17T03:59:13.934Z,1023.10
2022-12-17T04:00:12.968Z,1023.07
2022-12-17T04:01:13.065Z,1023.07
2022-12-17T04:02:13.396Z,1023.09
2022-12-17T04:03:13.660Z,1023.06
2022-12-17T04:04:14.056Z,1023.07
2022-12-17T04:05:19.748Z,1023.09
2022-12-17T04:06:13.266Z,1023.05
2022-12-17T04:07:13.362Z,1023.07
2022-12-17T04:08:13.821Z,1023.03
2022-12-17T04:09:13.314Z,1023.07
2022-12-17T04:10:13.354Z,1023.06
2022-12-17T04:11:13.205Z,1023.03
2022-12-17T04:12:13.198Z,1023.01
2022-12-17T04:13:13.209Z,1023.05
2022-12-17T04:14:13.558Z,1023.01
2022-12-17T04:15:13.598Z,1023.02
2022-12-17T04:16:13.639Z,1023.01
2022-12-17T04:17:18.956Z,1023.03
2022-12-17T04:18:12.906Z,1023.07
2022-12-17T04:19:13.090Z,1023.10
2022-12-17T04:20:13.270Z,1023.13
2022-12-17T04:21:13.374Z,1023.12
2022-12-17T04:22:13.556Z,1023.14
2022-12-17T04:23:13.731Z,1023.13
2022-12-17T04:24:13.872Z,1023.16
2022-12-17T04:25:13.837Z,1023.09
2022-12-17T04:26:14.119Z,1023.14
2022-12-17T04:27:13.323Z,1023.11
2022-12-17T04:28:13.253Z,1023.15
2022-12-17T04:29:13.254Z,1023.17
2022-12-17T04:30:13.533Z,1023.20
2022-12-17T04:31:13.574Z,1023.23
2022-12-17T04:32:13.892Z,1023.26
2022-12-17T04:33:13.281Z,1023.28
2022-12-17T04:34:13.527Z,1023.32
2022-12-17T04:35:14.473Z,1023.35
2022-12-17T04:36:13.353Z,1023.38
2022-12-17T04:37:13.212Z,1023.34
2022-12-17T04:38:13.452Z,1023.34
2022-12-17T04:39:13.384Z,1023.36
2022-12-17T04:40:13.333Z,1023.38
2022-12-17T04:41:13.269Z,1023.39
2022-12-17T04:42:13.620Z,1023.41
2022-12-17T04:43:13.559Z,1023.44
2022-12-17T04:44:13.466Z,1023.46
2022-12-17T04:45:13.603Z,1023.43
2022-12-17T04:46:13.869Z,1023.48
2022-12-17T04:47:12.991Z,1023.47
2022-12-17T04:48:13.561Z,1023.50
2022-12-17T04:49:13.856Z,1023.52
2022-12-17T04:50:14.119Z,1023.51
2022-12-17T04:51:13.461Z,1023.52
2022-12-17T04:52:13.845Z,1023.53
2022-12-17T04:53:14.058Z,1023.53
2022-12-17T04:54:12.976Z,1023.53
2022-12-17T04:55:13.767Z,1023.52
2022-12-17T04:56:13.914Z,1023.51
2022-12-17T04:57:13.032Z,1023.53
2022-12-17T04:58:13.095Z,1023.53
2022-12-17T04:59:13.260Z,1023.57
2022-12-17T05:00:13.120Z,1023.54
2022-12-17T05:01:13.217Z,1023.52
2022-12-17T05:02:13.462Z,1023.56
2022-12-17T05:03:13.962Z,1023.52
2022-12-17T05:04:12.988Z,1023.53
2022-12-17T05:05:13.079Z,1023.49
2022-12-17T05:06:13.698Z,1023.48
2022-12-17T05:07:14.005Z,1023.48
2022-12-17T05:08:13.001Z,1023.50
2022-12-17T05:09:13.310Z,1023.49
2022-12-17T05:10:13.351Z,1023.54
2022-12-17T05:11:13.314Z,1023.53
2022-12-17T05:12:13.261Z,1023.55
2022-12-17T05:13:13.167Z,1023.60
2022-12-17T05:14:13.261Z,1023.59
2022-12-17T05:15:13.202Z,1023.60
2022-12-17T05:16:13.251Z,1023.60
2022-12-17T05:17:13.392Z,1023.58
2022-12-17T05:18:13.306Z,1023.57
2022-12-17T05:19:13.780Z,1023.57
2022-12-17T05:20:13.996Z,1023.57
2022-12-17T05:21:13.105Z,1023.57
2022-12-17T05:22:13.738Z,1023.59
2022-12-17T05:23:14.637Z,1023.58
2022-12-17T05:24:13.730Z,1023.57
2022-12-17T05:25:13.721Z,1023.59
2022-12-17T05:26:13.837Z,1023.58
2022-12-17T05:27:14.039Z,1023.59
2022-12-17T05:28:17.980Z,1023.62
2022-12-17T05:29:15.998Z,1023.64
2022-12-17T05:30:13.395Z,1023.64
2022-12-17T05:31:13.707Z,1023.65
2022-12-17T05:32:14.050Z,1023.63
2022-12-17T05:33:12.989Z,1023.64
2022-12-17T05:34:13.026Z,1023.60
2022-12-17T05:35:13.320Z,1023.59
2022-12-17T05:36:13.339Z,1023.62
2022-12-17T05:37:13.753Z,1023.62
2022-12-17T05:38:13.968Z,1023.63
2022-12-17T05:39:13.413Z,1023.62
2022-12-17T05:40:13.409Z,1023.71
2022-12-17T05:41:13.478Z,1023.72
2022-12-17T05:42:14.009Z,1023.78
2022-12-17T05:43:13.344Z,1023.74
2022-12-17T05:44:13.715Z,1023.77
2022-12-17T05:45:13.662Z,1023.78
2022-12-17T05:46:13.648Z,1023.80
2022-12-17T05:47:23.919Z,1023.76
2022-12-17T05:48:13.203Z,1023.79
2022-12-17T05:49:13.330Z,1023.82
2022-12-17T05:50:13.197Z,1023.81
2022-12-17T05:51:13.575Z,1023.81
2022-12-17T05:52:13.793Z,1023.84
2022-12-17T05:53:14.260Z,1023.81
2022-12-17T05:54:13.242Z,1023.83
2022-12-17T05:55:13.454Z,1023.82
2022-12-17T05:56:13.580Z,1023.86
2022-12-17T05:57:13.559Z,1023.83
2022-12-17T05:58:13.573Z,1023.86
2022-12-17T05:59:13.863Z,1023.88
2022-12-17T06:00:14.151Z,1023.89
2022-12-17T06:01:13.774Z,1023.97
2022-12-17T06:02:13.647Z,1023.94
2022-12-17T06:03:13.643Z,1023.92
2022-12-17T06:04:13.904Z,1023.93
2022-12-17T06:05:13.172Z,1023.94
2022-12-17T06:06:13.266Z,1023.96
2022-12-17T06:07:13.187Z,1023.94
2022-12-17T06:08:13.058Z,1023.93
2022-12-17T06:09:13.159Z,1023.94
2022-12-17T06:10:13.087Z,1023.93
2022-12-17T06:11:13.117Z,1023.95
2022-12-17T06:12:13.061Z,1023.98
2022-12-17T06:13:13.545Z,1023.93
2022-12-17T06:14:13.421Z,1023.95
2022-12-17T06:15:13.355Z,1023.97
2022-12-17T06:16:13.831Z,1023.99
2022-12-17T06:17:14.092Z,1024.01
2022-12-17T06:18:16.643Z,1024.02
2022-12-17T06:19:14.074Z,1024.00
2022-12-17T06:20:13.220Z,1024.01
2022-12-17T06:21:13.433Z,1024.04
2022-12-17T06:22:13.576Z,1024.03
2022-12-17T06:23:13.482Z,1024.02
2022-12-17T06:24:13.552Z,1024.02
2022-12-17T06:25:13.536Z,1024.03
2022-12-17T06:26:13.703Z,1024.03
2022-12-17T06:27:18.715Z,1024.02
2022-12-17T06:28:13.852Z,1024.07
2022-12-17T06:29:13.764Z,1024.07
2022-12-17T06:30:18.422Z,1024.09
2022-12-17T06:31:13.522Z,1024.08
2022-12-17T06:32:13.576Z,1024.11
2022-12-17T06:33:13.549Z,1024.17
2022-12-17T06:34:13.922Z,1024.13
2022-12-17T06:35:12.800Z,1024.12
2022-12-17T06:36:21.331Z,1024.14
2022-12-17T06:37:13.297Z,1024.11
2022-12-17T06:38:13.415Z,1024.14
2022-12-17T06:39:14.504Z,1024.11
2022-12-17T06:40:13.552Z,1024.17
2022-12-17T06:41:13.564Z,1024.20
2022-12-17T06:42:13.841Z,1024.18
2022-12-17T06:43:13.777Z,1024.20
2022-12-17T06:44:13.889Z,1024.14
2022-12-17T06:45:13.193Z,1024.15
2022-12-17T06:46:13.206Z,1024.20
2022-12-17T06:47:13.702Z,1024.18
2022-12-17T06:48:13.867Z,1024.21
2022-12-17T06:49:13.788Z,1024.22
2022-12-17T06:50:13.718Z,1024.23
2022-12-17T06:51:13.891Z,1024.21
2022-12-17T06:52:12.847Z,1024.19
2022-12-17T06:53:13.787Z,1024.19
2022-12-17T06:54:13.852Z,1024.22
2022-12-17T06:55:14.855Z,1024.24
2022-12-17T06:56:13.731Z,1024.22
2022-12-17T06:57:13.714Z,1024.19
2022-12-17T06:58:14.201Z,1024.22
2022-12-17T06:59:13.478Z,1024.26
2022-12-17T07:00:13.653Z,1024.24
2022-12-17T07:01:14.147Z,1024.27
2022-12-17T07:02:13.179Z,1024.27
2022-12-17T07:03:14.828Z,1024.28
2022-12-17T07:04:13.439Z,1024.30
2022-12-17T07:05:13.583Z,1024.29
2022-12-17T07:06:13.628Z,1024.34
2022-12-17T07:07:13.564Z,1024.33
2022-12-17T07:08:13.479Z,1024.37
2022-12-17T07:09:13.323Z,1024.42
2022-12-17T07:10:14.426Z,1024.46
2022-12-17T07:11:13.752Z,1024.51
2022-12-17T07:12:13.888Z,1024.48
2022-12-17T07:13:13.091Z,1024.51
2022-12-17T07:14:13.055Z,1024.50
2022-12-17T07:15:13.256Z,1024.51
2022-12-17T07:16:13.508Z,1024.50
2022-12-17T07:17:13.396Z,1024.52
2022-12-17T07:18:13.735Z,1024.54
2022-12-17T07:19:13.669Z,1024.53
2022-12-17T07:20:14.023Z,1024.55
2022-12-17T07:21:13.068Z,1024.57
2022-12-17T07:22:13.263Z,1024.59
2022-12-17T07:23:13.401Z,1024.59
2022-12-17T07:24:13.454Z,1024.61
2022-12-17T07:25:13.554Z,1024.65
2022-12-17T07:26:13.644Z,1024.65
2022-12-17T07:27:13.549Z,1024.68
2022-12-17T07:28:13.501Z,1024.67
2022-12-17T07:29:13.463Z,1024.73
2022-12-17T07:30:13.529Z,1024.74
2022-12-17T07:31:13.404Z,1024.70
2022-12-17T07:32:13.373Z,1024.75
2022-12-17T07:33:13.327Z,1024.72
2022-12-17T07:34:13.610Z,1024.72
2022-12-17T07:35:13.944Z,1024.71
2022-12-17T07:36:12.868Z,1024.69
2022-12-17T07:37:17.422Z,1024.72
2022-12-17T07:38:13.273Z,1024.73
2022-12-17T07:39:13.285Z,1024.72
2022-12-17T07:40:13.166Z,1024.76
2022-12-17T07:41:13.132Z,1024.74
2022-12-17T07:42:13.221Z,1024.72
2022-12-17T07:43:13.499Z,1024.72
2022-12-17T07:44:13.417Z,1024.73
2022-12-17T07:45:13.662Z,1024.72
2022-12-17T07:46:13.816Z,1024.76
2022-12-17T07:47:13.845Z,1024.78
2022-12-17T07:48:13.759Z,1024.77
2022-12-17T07:49:13.638Z,1024.75
2022-12-17T07:50:13.720Z,1024.79
2022-12-17T07:51:13.696Z,1024.82
2022-12-17T07:52:13.549Z,1024.81
2022-12-17T07:53:13.612Z,1024.84
2022-12-17T07:54:13.665Z,1024.86
2022-12-17T07:55:18.082Z,1024.91
2022-12-17T07:56:13.254Z,1024.93
2022-12-17T07:57:13.464Z,1024.93
2022-12-17T07:58:13.565Z,1024.94
2022-12-17T07:59:13.542Z,1024.92
2022-12-17T08:00:13.703Z,1024.96
2022-12-17T08:01:13.881Z,1025.00
2022-12-17T08:02:13.331Z,1025.03
2022-12-17T08:03:13.614Z,1025.02
2022-12-17T08:04:13.556Z,1025.02
2022-12-17T08:05:13.786Z,1025.03
2022-12-17T08:06:13.727Z,1025.03
2022-12-17T08:07:14.360Z,1025.05
2022-12-17T08:08:13.441Z,1025.02
2022-12-17T08:09:13.335Z,1025.01
2022-12-17T08:10:13.213Z,1025.04
2022-12-17T08:11:13.671Z,1025.00
2022-12-17T08:12:13.912Z,1025.06
2022-12-17T08:13:14.201Z,1025.07
2022-12-17T08:14:14.058Z,1025.05
2022-12-17T08:15:12.982Z,1025.08
2022-12-17T08:16:13.317Z,1025.12
2022-12-17T08:17:13.275Z,1025.14
2022-12-17T08:18:13.512Z,1025.16
2022-12-17T08:19:13.480Z,1025.16
2022-12-17T08:20:13.413Z,1025.17
2022-12-17T08:21:13.566Z,1025.13
2022-12-17T08:22:13.822Z,1025.14
2022-12-17T08:23:13.781Z,1025.19
2022-12-17T08:24:13.742Z,1025.16
2022-12-17T08:25:14.140Z,1025.18
2022-12-17T08:26:13.061Z,1025.23
2022-12-17T08:27:13.184Z,1025.16
2022-12-17T08:28:33.888Z,1025.14
2022-12-17T08:29:14.108Z,1025.18
2022-12-17T08:30:12.991Z,1025.21
2022-12-17T08:31:13.014Z,1025.22
2022-12-17T08:32:12.964Z,1025.24
2022-12-17T08:33:12.874Z,1025.27
2022-12-17T08:34:13.695Z,1025.25
2022-12-17T08:35:13.569Z,1025.25
2022-12-17T08:36:13.905Z,1025.24
2022-12-17T08:37:12.787Z,1025.25
2022-12-17T08:38:14.041Z,1025.28
2022-12-17T08:39:12.914Z,1025.29
2022-12-17T08:40:12.886Z,1025.29
2022-12-17T08:41:13.889Z,1025.28
2022-12-17T08:42:13.888Z,1025.35
2022-12-17T08:43:13.961Z,1025.30
2022-12-17T08:44:13.049Z,1025.34
2022-12-17T08:45:13.100Z,1025.36
2022-12-17T08:46:18.350Z,1025.41
2022-12-17T08:47:13.304Z,1025.37
2022-12-17T08:48:13.520Z,1025.38
2022-12-17T08:49:13.374Z,1025.42
2022-12-17T08:50:13.294Z,1025.44
2022-12-17T08:51:13.136Z,1025.41
2022-12-17T08:52:13.204Z,1025.40
2022-12-17T08:53:13.208Z,1025.43
2022-12-17T08:54:13.136Z,1025.45
2022-12-17T08:55:13.225Z,1025.47
2022-12-17T08:56:13.352Z,1025.50
2022-12-17T08:57:22.559Z,1025.48
2022-12-17T08:58:12.958Z,1025.52
2022-12-17T08:59:13.065Z,1025.53
2022-12-17T09:00:13.115Z,1025.56
2022-12-17T09:01:13.170Z,1025.55
2022-12-17T09:02:13.405Z,1025.55
2022-12-17T09:03:13.503Z,1025.54
2022-12-17T09:04:13.631Z,1025.54
2022-12-17T09:05:13.551Z,1025.60
2022-12-17T09:06:13.788Z,1025.61
2022-12-17T09:07:13.694Z,1025.56
2022-12-17T09:08:13.587Z,1025.51
2022-12-17T09:09:13.610Z,1025.54
2022-12-17T09:10:13.525Z,1025.58
2022-12-17T09:11:13.416Z,1025.57
2022-12-17T09:12:13.343Z,1025.55
2022-12-17T09:13:13.285Z,1025.59
2022-12-17T09:14:13.536Z,1025.57
2022-12-17T09:15:13.600Z,1025.54
2022-12-17T09:16:13.742Z,1025.56
2022-12-17T09:17:13.760Z,1025.56
2022-12-17T09:18:13.655Z,1025.54
2022-12-17T09:19:13.634Z,1025.50
2022-12-17T09:20:13.522Z,1025.53
2022-12-17T09:21:13.345Z,1025.55
2022-12-17T09:22:13.611Z,1025.54
2022-12-17T09:23:13.669Z,1025.57
2022-12-17T09:24:13.828Z,1025.58
2022-12-17T09:25:13.734Z,1025.59
2022-12-17T09:26:13.684Z,1025.56
2022-12-17T09:27:13.971Z,1025.59
2022-12-17T09:28:13.407Z,1025.55
2022-12-17T09:29:13.410Z,1025.53
2022-12-17T09:30:13.294Z,1025.56
2022-12-17T09:31:13.662Z,1025.59
2022-12-17T09:32:13.667Z,1025.62
2022-12-17T09:33:13.572Z,1025.66
2022-12-17T09:34:13.480Z,1025.69
2022-12-17T09:35:13.417Z,1025.66
2022-12-17T09:36:13.479Z,1025.66
2022-12-17T09:37:13.486Z,1025.67
2022-12-17T09:38:13.542Z,1025.64
2022-12-17T09:39:13.473Z,1025.63
2022-12-17T09:40:13.402Z,1025.66
2022-12-17T09:41:13.411Z,1025.66
2022-12-17T09:42:13.418Z,1025.65
2022-12-17T09:43:13.373Z,1025.65
2022-12-17T09:44:13.310Z,1025.65
2022-12-17T09:45:13.492Z,1025.65
2022-12-17T09:46:13.503Z,1025.62
2022-12-17T09:47:13.802Z,1025.62
2022-12-17T09:48:14.137Z,1025.57
2022-12-17T09:49:13.191Z,1025.59
2022-12-17T09:50:13.249Z,1025.56
2022-12-17T09:51:13.211Z,1025.62
2022-12-17T09:52:13.602Z,1025.57
2022-12-17T09:53:18.494Z,1025.58
2022-12-17T09:54:13.415Z,1025.55
2022-12-17T09:55:13.395Z,1025.58
2022-12-17T09:56:13.763Z,1025.57
2022-12-17T09:57:13.731Z,1025.61
2022-12-17T09:58:18.840Z,1025.62
2022-12-17T09:59:13.665Z,1025.66
2022-12-17T10:00:14.131Z,1025.64
2022-12-17T10:01:13.205Z,1025.65
2022-12-17T10:02:13.433Z,1025.63
2022-12-17T10:03:13.473Z,1025.70
2022-12-17T10:04:13.644Z,1025.70
2022-12-17T10:05:13.536Z,1025.74
2022-12-17T10:06:17.903Z,1025.73
2022-12-17T10:07:13.919Z,1025.71
2022-12-17T10:08:13.143Z,1025.73
2022-12-17T10:09:13.148Z,1025.73
2022-12-17T10:10:18.197Z,1025.76
2022-12-17T10:11:13.264Z,1025.72
2022-12-17T10:12:13.343Z,1025.72
2022-12-17T10:13:13.413Z,1025.72
2022-12-17T10:14:13.262Z,1025.69
2022-12-17T10:15:13.362Z,1025.73
2022-12-17T10:16:18.275Z,1025.70
2022-12-17T10:17:13.405Z,1025.71
2022-12-17T10:18:13.534Z,1025.77
2022-12-17T10:19:13.468Z,1025.77
2022-12-17T10:20:13.958Z,1025.80
2022-12-17T10:21:13.225Z,1025.83
2022-12-17T10:22:20.692Z,1025.82
2022-12-17T10:23:13.929Z,1025.79
2022-12-17T10:24:18.321Z,1025.81
2022-12-17T10:25:13.912Z,1025.79
2022-12-17T10:26:12.765Z,1025.81
2022-12-17T10:27:13.610Z,1025.81
2022-12-17T10:28:13.850Z,1025.83
2022-12-17T10:29:18.714Z,1025.83
2022-12-17T10:30:14.241Z,1025.82
2022-12-17T10:31:13.608Z,1025.84
2022-12-17T10:32:13.675Z,1025.87
2022-12-17T10:33:14.111Z,1025.82
2022-12-17T10:34:13.424Z,1025.84
2022-12-17T10:35:13.284Z,1025.84
2022-12-17T10:36:13.298Z,1025.85
2022-12-17T10:37:13.492Z,1025.86
2022-12-17T10:38:13.613Z,1025.86
2022-12-17T10:39:13.753Z,1025.83
2022-12-17T10:40:14.078Z,1025.83
2022-12-17T10:41:13.082Z,1025.83
2022-12-17T10:42:13.303Z,1025.86
2022-12-17T10:43:13.410Z,1025.88
2022-12-17T10:44:13.394Z,1025.89
2022-12-17T10:45:13.553Z,1025.84
2022-12-17T10:46:13.697Z,1025.82
2022-12-17T10:47:13.885Z,1025.86
2022-12-17T10:48:14.030Z,1025.86
2022-12-17T10:49:13.349Z,1025.86
2022-12-17T10:50:14.601Z,1025.84
2022-12-17T10:51:13.649Z,1025.86
2022-12-17T10:52:13.712Z,1025.91
2022-12-17T10:53:14.291Z,1025.91
2022-12-17T10:54:13.371Z,1025.86
2022-12-17T10:55:13.383Z,1025.89
2022-12-17T10:56:13.848Z,1025.87
2022-12-17T10:57:18.946Z,1025.90
2022-12-17T10:58:13.310Z,1025.89
2022-12-17T10:59:13.361Z,1025.90
2022-12-17T11:00:13.291Z,1025.92
2022-12-17T11:01:13.668Z,1025.92
2022-12-17T11:02:13.961Z,1025.95
2022-12-17T11:03:13.468Z,1025.96
2022-12-17T11:04:13.848Z,1025.95
2022-12-17T11:05:13.842Z,1025.97
2022-12-17T11:06:13.963Z,1026.00
2022-12-17T11:07:13.092Z,1026.02
2022-12-17T11:08:13.510Z,1026.05
2022-12-17T11:09:13.414Z,1026.03
2022-12-17T11:10:13.405Z,1026.07
2022-12-17T11:11:13.749Z,1026.08
2022-12-17T11:12:13.711Z,1026.10
2022-12-17T11:13:13.614Z,1026.09
2022-12-17T11:14:13.537Z,1026.05
2022-12-17T11:15:13.436Z,1026.07
2022-12-17T11:16:13.435Z,1026.06
2022-12-17T11:17:13.613Z,1026.06
2022-12-17T11:18:13.527Z,1026.04
2022-12-17T11:19:13.591Z,1026.07
2022-12-17T11:20:13.481Z,1026.05
2022-12-17T11:21:13.490Z,1026.06
2022-12-17T11:22:13.443Z,1026.05
2022-12-17T11:23:13.431Z,1026.09
2022-12-17T11:24:17.691Z,1026.06
2022-12-17T11:25:13.624Z,1026.08
2022-12-17T11:26:13.662Z,1026.08
2022-12-17T11:27:13.677Z,1026.10
2022-12-17T11:28:13.712Z,1026.13
2022-12-17T11:29:20.231Z,1026.10
2022-12-17T11:30:13.181Z,1026.12
2022-12-17T11:31:13.252Z,1026.08
2022-12-17T11:32:13.219Z,1026.06
2022-12-17T11:33:13.135Z,1026.09
2022-12-17T11:34:13.131Z,1026.05
2022-12-17T11:35:13.310Z,1026.07
2022-12-17T11:36:13.407Z,1026.01
2022-12-17T11:37:13.647Z,1026.01
2022-12-17T11:38:13.639Z,1025.98
2022-12-17T11:39:13.635Z,1025.98
2022-12-17T11:40:13.712Z,1025.95
2022-12-17T11:41:14.109Z,1025.95
2022-12-17T11:42:13.199Z,1025.94
2022-12-17T11:43:13.127Z,1025.95
2022-12-17T11:44:13.128Z,1025.98
2022-12-17T11:45:13.280Z,1025.96
2022-12-17T11:46:13.192Z,1025.99
2022-12-17T11:47:18.611Z,1025.99
2022-12-17T11:48:13.945Z,1025.95
2022-12-17T11:49:12.956Z,1025.98
2022-12-17T11:50:12.804Z,1025.99
2022-12-17T11:51:13.893Z,1026.02
2022-12-17T11:52:12.812Z,1026.02
2022-12-17T11:53:13.751Z,1026.01
2022-12-17T11:54:14.095Z,1026.00
2022-12-17T11:55:13.231Z,1025.96
2022-12-17T11:56:13.305Z,1026.01
2022-12-17T11:57:14.031Z,1025.98
2022-12-17T11:58:13.049Z,1026.01
2022-12-17T11:59:13.516Z,1026.00
2022-12-17T12:00:13.411Z,1026.00
2022-12-17T12:01:18.410Z,1026.02
2022-12-17T12:02:13.427Z,1026.01
2022-12-17T12:03:13.794Z,1026.02
2022-12-17T12:04:13.906Z,1026.04
2022-12-17T12:05:12.962Z,1026.04